Weather History for KANW - December, 2011

Change the Weather History Date:

Friday, December 30, 2011

  Actual Average Record
Temperature  
Mean Temperature 40 °F -  
Max Temperature 48 °F 34 °F 57 °F (2004)
Min Temperature 33 °F 14 °F -10 °F (2014)
Degree Days  
Heating Degree Days 24    
Moisture  
Dew Point 23 °F    
Average Humidity 55    
Maximum Humidity 81    
Minimum Humidity 32    
Precipitation  
Precipitation 0.00 in - - ()
Sea Level Pressure  
Sea Level Pressure 29.77 in    
Wind  
Wind Speed 14 mph (West)    
Max Wind Speed 21 mph    
Max Gust Speed 28 mph    
Visibility 10 miles    
Events      
Averages and records for this station are not official NWS values.
T = Trace of Precipitation, MM = Missing Value Source: NWS Daily Summary

Daily Weather History Graph

Daily Weather History Graph

Search for Another Location

Airport or City:

Trip Planner

Search our weather history database for the weather conditions in past years. The results will help you decide how hot, cold, wet, or windy it might be!

Date:

Astronomy

Dec. 30, 2011 Rise Set
Actual Time 8:09 AM CST 5:15 PM CST
Civil Twilight 7:37 AM CST 5:47 PM CST
Nautical Twilight 7:02 AM CST 6:22 PM CST
Astronomical Twilight 6:27 AM CST 6:57 PM CST
Moon 11:21 AM CST (12/30) No Moon Set
Length of Visible Light 10h 09m
Length of Day
9h 05m
Waxing Crescent, 36% of the Moon is Illuminated
Dec 30
Waxing Crescent
Jan 1
First Quarter
Jan 9
Full
Jan 16
Last Quarter
Jan 23
New

Hourly Weather History & Observations

Time (CST) Temp. Windchill Dew Point Humidity Pressure Visibility Wind Dir Wind Speed Gust Speed Precip Events Conditions
12:15 AM 37.4 °F 29.8 °F 30.2 °F 75% 29.69 in 10.0 mi West 11.5 mph - N/A   Clear
12:35 AM 35.6 °F 28.0 °F 30.2 °F 81% 29.69 in 10.0 mi West 10.4 mph - N/A   Clear
12:55 AM 35.6 °F 26.2 °F 30.2 °F 81% 29.69 in 10.0 mi West 15.0 mph - N/A   Clear
1:15 AM 35.6 °F 27.1 °F 30.2 °F 81% 29.69 in 10.0 mi West 12.7 mph - N/A   Clear
1:35 AM 35.6 °F 26.2 °F 30.2 °F 81% 29.69 in 10.0 mi West 15.0 mph 21.9 mph N/A   Clear
1:55 AM 37.4 °F 28.2 °F 28.4 °F 70% 29.70 in 10.0 mi West 16.1 mph - N/A   Clear
2:15 AM 37.4 °F 27.2 °F 28.4 °F 70% 29.72 in 10.0 mi West 19.6 mph 26.5 mph N/A   Clear
2:35 AM 37.4 °F 28.2 °F 28.4 °F 70% 29.72 in 10.0 mi WNW 16.1 mph - N/A   Clear
2:55 AM 37.4 °F 27.8 °F 26.6 °F 65% 29.73 in 10.0 mi West 17.3 mph - N/A   Clear
3:15 AM 37.4 °F 27.5 °F 26.6 °F 65% 29.73 in 10.0 mi West 18.4 mph 27.6 mph N/A   Clear
3:35 AM 37.4 °F 27.5 °F 26.6 °F 65% 29.74 in 10.0 mi West 18.4 mph 25.3 mph N/A   Clear
3:55 AM 37.4 °F 27.5 °F 24.8 °F 60% 29.74 in 10.0 mi West 18.4 mph - N/A   Clear
4:15 AM 37.4 °F 27.8 °F 24.8 °F 60% 29.75 in 10.0 mi WNW 17.3 mph 24.2 mph N/A   Clear
4:35 AM 37.4 °F 28.2 °F 23.0 °F 56% 29.74 in 10.0 mi West 16.1 mph 23.0 mph N/A   Clear
4:55 AM 37.4 °F 27.5 °F 23.0 °F 56% 29.74 in 10.0 mi West 18.4 mph 23.0 mph N/A   Clear
5:15 AM 37.4 °F 26.9 °F 23.0 °F 56% 29.75 in 10.0 mi WNW 20.7 mph - N/A   Clear
5:35 AM 37.4 °F 27.8 °F 23.0 °F 56% 29.76 in 10.0 mi West 17.3 mph 27.6 mph N/A   Clear
5:55 AM 35.6 °F 25.5 °F 23.0 °F 60% 29.76 in 10.0 mi West 17.3 mph 21.9 mph N/A   Clear
6:15 AM 35.6 °F 26.6 °F 23.0 °F 60% 29.77 in 10.0 mi West 13.8 mph - N/A   Clear
6:35 AM 33.8 °F 23.9 °F 23.0 °F 65% 29.77 in 10.0 mi West 15.0 mph - N/A   Clear
6:55 AM 33.8 °F 23.9 °F 23.0 °F 65% 29.78 in 10.0 mi West 15.0 mph - N/A   Clear
7:15 AM 33.8 °F 24.8 °F 23.0 °F 65% 29.79 in 10.0 mi West 12.7 mph 19.6 mph N/A   Clear
7:35 AM 33.8 °F 23.9 °F 23.0 °F 65% 29.79 in 10.0 mi West 15.0 mph - N/A   Clear
7:55 AM 33.8 °F 22.8 °F 23.0 °F 65% 29.80 in 10.0 mi West 18.4 mph - N/A   Clear
8:15 AM 35.6 °F 26.2 °F 23.0 °F 60% 29.81 in 10.0 mi WNW 15.0 mph - N/A   Clear
8:35 AM 35.6 °F 27.5 °F 23.0 °F 60% 29.82 in 10.0 mi WNW 11.5 mph - N/A   Clear
8:55 AM 33.8 °F 26.4 °F 23.0 °F 65% 29.82 in 10.0 mi West 9.2 mph - N/A   Clear
9:15 AM 35.6 °F 28.0 °F 23.0 °F 60% 29.82 in 10.0 mi West 10.4 mph - N/A   Clear
9:35 AM 37.4 °F 28.2 °F 23.0 °F 56% 29.83 in 10.0 mi WNW 16.1 mph 21.9 mph N/A   Clear
9:55 AM 37.4 °F 28.5 °F 23.0 °F 56% 29.83 in 10.0 mi WNW 15.0 mph 18.4 mph N/A   Clear
10:15 AM 39.2 °F 30.8 °F 23.0 °F 52% 29.84 in 10.0 mi WNW 15.0 mph - N/A   Clear
10:35 AM 41.0 °F 33.5 °F 23.0 °F 49% 29.85 in 10.0 mi WNW 13.8 mph 26.5 mph N/A   Clear
10:55 AM 41.0 °F 32.2 °F 23.0 °F 49% 29.85 in 10.0 mi NW 18.4 mph 21.9 mph N/A   Clear
11:15 AM 42.8 °F 34.8 °F 23.0 °F 46% 29.85 in 10.0 mi WNW 17.3 mph 26.5 mph N/A   Clear
11:35 AM 42.8 °F 34.0 °F 23.0 °F 46% 29.83 in 10.0 mi WNW 20.7 mph 25.3 mph N/A   Clear
11:55 AM 44.6 °F 37.4 °F 23.0 °F 43% 29.83 in 10.0 mi WNW 16.1 mph 20.7 mph N/A   Clear
12:15 PM 44.6 °F 36.9 °F 23.0 °F 43% 29.82 in 10.0 mi NW 18.4 mph - N/A   Clear
12:55 PM 44.6 °F 37.4 °F 23.0 °F 43% 29.81 in 10.0 mi WNW 16.1 mph 23.0 mph N/A   Clear
1:15 PM 46.4 °F 39.8 °F 21.2 °F 37% 29.80 in 10.0 mi WNW 16.1 mph 21.9 mph N/A   Clear
1:35 PM 46.4 °F 40.4 °F 21.2 °F 37% 29.79 in 10.0 mi NW 13.8 mph - N/A   Clear
1:55 PM 46.4 °F 41.1 °F 19.4 °F 34% 29.78 in 10.0 mi NW 11.5 mph 18.4 mph N/A   Clear
2:15 PM 46.4 °F 41.1 °F 17.6 °F 32% 29.78 in 10.0 mi NW 11.5 mph 16.1 mph N/A   Clear
2:35 PM 48.2 °F - 19.4 °F 32% 29.77 in 10.0 mi NW 8.1 mph - N/A   Clear
2:55 PM 48.2 °F - 19.4 °F 32% 29.78 in 10.0 mi NW 6.9 mph - N/A   Clear
3:15 PM 46.4 °F 44.3 °F 17.6 °F 32% 29.78 in 10.0 mi West 4.6 mph - N/A   Clear
3:35 PM 46.4 °F 44.3 °F 19.4 °F 34% 29.78 in 10.0 mi West 4.6 mph - N/A   Clear
3:55 PM 46.4 °F 45.2 °F 21.2 °F 37% 29.78 in 10.0 mi WSW 3.5 mph - N/A   Clear
4:15 PM 44.6 °F 43.1 °F 19.4 °F 37% 29.78 in 10.0 mi SSW 3.5 mph - N/A   Clear
4:35 PM 42.8 °F 38.6 °F 21.2 °F 42% 29.77 in 10.0 mi SSW 6.9 mph - N/A   Clear
4:55 PM 39.2 °F 35.9 °F 21.2 °F 49% 29.77 in 10.0 mi SSE 4.6 mph - N/A   Clear
5:15 PM 39.2 °F 34.2 °F 21.2 °F 49% 29.77 in 10.0 mi South 6.9 mph - N/A   Clear
5:35 PM 33.8 °F 29.6 °F 21.2 °F 60% 29.77 in 10.0 mi SE 4.6 mph - N/A   Clear
5:55 PM 35.6 °F 29.2 °F 21.2 °F 56% 29.77 in 10.0 mi South 8.1 mph - N/A   Clear
6:15 PM 33.8 °F 28.6 °F 21.2 °F 60% 29.76 in 10.0 mi SSE 5.8 mph - N/A   Clear
6:35 PM 33.8 °F 28.6 °F 21.2 °F 60% 29.75 in 10.0 mi SE 5.8 mph - N/A   Clear
6:55 PM 33.8 °F 27.7 °F 21.2 °F 60% 29.74 in 10.0 mi ESE 6.9 mph - N/A   Clear
7:15 PM 33.8 °F 27.0 °F 21.2 °F 60% 29.74 in 10.0 mi SSE 8.1 mph - N/A   Clear
7:35 PM 33.8 °F 27.0 °F 21.2 °F 60% 29.73 in 10.0 mi SSE 8.1 mph - N/A   Clear
7:55 PM 37.4 °F 30.3 °F 21.2 °F 52% 29.72 in 10.0 mi SSE 10.4 mph - N/A   Clear
8:15 PM 35.6 °F 28.6 °F 19.4 °F 52% 29.71 in 10.0 mi SSE 9.2 mph - N/A   Clear
8:35 PM 35.6 °F 28.6 °F 21.2 °F 56% 29.71 in 10.0 mi SSE 9.2 mph - N/A   Clear
8:55 PM 35.6 °F 28.6 °F 21.2 °F 56% 29.69 in 10.0 mi SSE 9.2 mph - N/A   Clear
9:15 PM 35.6 °F 27.5 °F 21.2 °F 56% 29.68 in 10.0 mi SSE 11.5 mph - N/A   Clear
9:35 PM 37.4 °F 30.3 °F 21.2 °F 52% 29.67 in 10.0 mi South 10.4 mph - N/A   Clear
9:55 PM 37.4 °F 29.8 °F 21.2 °F 52% 29.66 in 10.0 mi South 11.5 mph - N/A   Clear
10:15 PM 37.4 °F 28.9 °F 21.2 °F 52% 29.64 in 10.0 mi South 13.8 mph - N/A   Clear
10:35 PM 35.6 °F 27.5 °F 23.0 °F 60% 29.64 in 10.0 mi South 11.5 mph - N/A   Clear
10:55 PM 35.6 °F 27.1 °F 23.0 °F 60% 29.62 in 10.0 mi South 12.7 mph - N/A   Clear
11:15 PM 35.6 °F 27.1 °F 23.0 °F 60% 29.62 in 10.0 mi South 12.7 mph - N/A   Clear
11:35 PM 35.6 °F 28.0 °F 23.0 °F 60% 29.59 in 10.0 mi South 10.4 mph - N/A   Clear
11:55 PM 35.6 °F 26.6 °F 23.0 °F 60% 29.58 in 10.0 mi South 13.8 mph - N/A   Clear